sensor_id;sensor_type;location;lat;lon;timestamp;P1;durP1;ratioP1;P2;durP2;ratioP2
73104;SDS011;61296;50.526;30.792;2022-08-19T00:07:08;10.55;;;6.88;;
73104;SDS011;61296;50.526;30.792;2022-08-19T00:22:27;11.50;;;6.65;;
73104;SDS011;61296;50.526;30.792;2022-08-19T00:37:47;13.88;;;7.15;;
73104;SDS011;61296;50.526;30.792;2022-08-19T00:53:06;13.75;;;7.50;;
73104;SDS011;61296;50.526;30.792;2022-08-19T01:08:26;12.45;;;7.38;;
73104;SDS011;61296;50.526;30.792;2022-08-19T01:23:45;18.85;;;8.32;;
73104;SDS011;61296;50.526;30.792;2022-08-19T01:39:07;21.58;;;13.07;;
73104;SDS011;61296;50.526;30.792;2022-08-19T01:54:29;29.92;;;14.88;;
73104;SDS011;61296;50.526;30.792;2022-08-19T02:09:49;15.45;;;9.80;;
73104;SDS011;61296;50.526;30.792;2022-08-19T02:25:09;14.95;;;8.48;;
73104;SDS011;61296;50.526;30.792;2022-08-19T02:40:30;15.35;;;7.35;;
73104;SDS011;61296;50.526;30.792;2022-08-19T02:55:53;12.75;;;7.60;;
73104;SDS011;61296;50.526;30.792;2022-08-19T03:11:14;12.80;;;7.55;;
73104;SDS011;61296;50.526;30.792;2022-08-19T03:26:38;12.00;;;7.35;;
73104;SDS011;61296;50.526;30.792;2022-08-19T03:41:59;15.00;;;7.25;;
73104;SDS011;61296;50.526;30.792;2022-08-19T03:57:21;10.52;;;6.10;;
73104;SDS011;61296;50.526;30.792;2022-08-19T04:12:41;11.80;;;5.30;;
73104;SDS011;61296;50.526;30.792;2022-08-19T04:28:00;11.52;;;5.63;;
73104;SDS011;61296;50.526;30.792;2022-08-19T04:43:20;8.68;;;5.53;;
73104;SDS011;61296;50.526;30.792;2022-08-19T04:58:40;12.27;;;6.20;;
73104;SDS011;61296;50.526;30.792;2022-08-19T05:14:01;9.27;;;5.25;;
73104;SDS011;61296;50.526;30.792;2022-08-19T05:29:21;14.13;;;6.65;;
73104;SDS011;61296;50.526;30.792;2022-08-19T05:44:41;15.50;;;6.55;;
73104;SDS011;61296;50.526;30.792;2022-08-19T06:00:06;11.00;;;5.90;;
73104;SDS011;61296;50.526;30.792;2022-08-19T06:15:30;14.25;;;5.78;;
73104;SDS011;61296;50.526;30.792;2022-08-19T06:30:50;12.80;;;5.82;;
73104;SDS011;61296;50.526;30.792;2022-08-19T06:46:13;14.95;;;6.57;;
73104;SDS011;61296;50.526;30.792;2022-08-19T07:01:36;11.25;;;6.00;;
73104;SDS011;61296;50.526;30.792;2022-08-19T07:16:56;12.15;;;6.28;;
73104;SDS011;61296;50.526;30.792;2022-08-19T07:32:16;11.85;;;6.15;;
73104;SDS011;61296;50.526;30.792;2022-08-19T07:47:35;14.65;;;5.85;;
73104;SDS011;61296;50.526;30.792;2022-08-19T08:02:54;9.48;;;6.20;;
73104;SDS011;61296;50.526;30.792;2022-08-19T08:18:14;10.35;;;5.80;;
73104;SDS011;61296;50.526;30.792;2022-08-19T08:33:33;10.68;;;5.55;;
73104;SDS011;61296;50.526;30.792;2022-08-19T09:04:18;12.73;;;6.50;;
73104;SDS011;61296;50.526;30.792;2022-08-19T09:19:49;8.73;;;5.82;;
73104;SDS011;61296;50.526;30.792;2022-08-19T09:35:14;10.30;;;6.75;;
73104;SDS011;61296;50.526;30.792;2022-08-19T09:50:33;11.38;;;5.97;;
73104;SDS011;61296;50.526;30.792;2022-08-19T10:05:58;9.07;;;6.13;;
73104;SDS011;61296;50.526;30.792;2022-08-19T10:21:31;14.23;;;6.25;;
73104;SDS011;61296;50.526;30.792;2022-08-19T10:36:53;13.63;;;5.53;;
73104;SDS011;61296;50.526;30.792;2022-08-19T10:52:12;10.98;;;4.70;;
73104;SDS011;61296;50.526;30.792;2022-08-19T11:07:52;10.80;;;5.10;;
73104;SDS011;61296;50.526;30.792;2022-08-19T11:23:11;9.15;;;5.28;;
73104;SDS011;61296;50.526;30.792;2022-08-19T11:38:30;9.95;;;4.70;;
73104;SDS011;61296;50.526;30.792;2022-08-19T11:53:50;11.25;;;5.70;;
73104;SDS011;61296;50.526;30.792;2022-08-19T12:09:10;10.70;;;5.30;;
73104;SDS011;61296;50.526;30.792;2022-08-19T12:24:30;9.65;;;5.35;;
73104;SDS011;61296;50.526;30.792;2022-08-19T12:39:51;9.43;;;5.65;;
73104;SDS011;61296;50.526;30.792;2022-08-19T12:55:10;11.10;;;5.20;;
73104;SDS011;61296;50.526;30.792;2022-08-19T13:10:32;20.80;;;5.78;;
73104;SDS011;61296;50.526;30.792;2022-08-19T13:25:57;11.18;;;6.30;;
73104;SDS011;61296;50.526;30.792;2022-08-19T13:41:18;13.60;;;6.28;;
73104;SDS011;61296;50.526;30.792;2022-08-19T13:56:42;10.85;;;5.75;;
73104;SDS011;61296;50.526;30.792;2022-08-19T14:12:03;11.85;;;8.13;;
73104;SDS011;61296;50.526;30.792;2022-08-19T14:27:23;7.50;;;5.40;;
73104;SDS011;61296;50.526;30.792;2022-08-19T14:42:44;10.25;;;5.85;;
73104;SDS011;61296;50.526;30.792;2022-08-19T14:58:04;12.20;;;5.63;;
73104;SDS011;61296;50.526;30.792;2022-08-19T15:13:26;9.63;;;4.90;;
73104;SDS011;61296;50.526;30.792;2022-08-19T15:28:47;10.63;;;6.10;;
73104;SDS011;61296;50.526;30.792;2022-08-19T15:44:13;9.57;;;4.85;;
73104;SDS011;61296;50.526;30.792;2022-08-19T15:59:35;7.80;;;4.85;;
73104;SDS011;61296;50.526;30.792;2022-08-19T16:15:15;8.07;;;4.90;;
73104;SDS011;61296;50.526;30.792;2022-08-19T16:30:35;7.40;;;4.38;;
73104;SDS011;61296;50.526;30.792;2022-08-19T16:45:57;7.78;;;4.65;;
73104;SDS011;61296;50.526;30.792;2022-08-19T17:01:17;8.40;;;4.70;;
73104;SDS011;61296;50.526;30.792;2022-08-19T17:16:36;7.25;;;4.38;;
73104;SDS011;61296;50.526;30.792;2022-08-19T17:31:55;8.70;;;4.70;;
73104;SDS011;61296;50.526;30.792;2022-08-19T17:47:14;8.32;;;4.75;;
73104;SDS011;61296;50.526;30.792;2022-08-19T18:02:42;5.50;;;3.78;;
73104;SDS011;61296;50.526;30.792;2022-08-19T18:18:11;7.63;;;4.60;;
73104;SDS011;61296;50.526;30.792;2022-08-19T18:33:31;5.53;;;3.90;;
73104;SDS011;61296;50.526;30.792;2022-08-19T18:48:52;4.32;;;3.88;;
73104;SDS011;61296;50.526;30.792;2022-08-19T19:04:24;8.00;;;4.30;;
73104;SDS011;61296;50.526;30.792;2022-08-19T19:19:46;5.45;;;4.03;;
73104;SDS011;61296;50.526;30.792;2022-08-19T19:35:06;6.95;;;4.45;;
73104;SDS011;61296;50.526;30.792;2022-08-19T19:50:28;6.05;;;4.50;;
73104;SDS011;61296;50.526;30.792;2022-08-19T20:05:48;7.43;;;4.20;;
73104;SDS011;61296;50.526;30.792;2022-08-19T20:21:08;5.65;;;4.25;;
73104;SDS011;61296;50.526;30.792;2022-08-19T20:36:27;6.20;;;4.35;;
73104;SDS011;61296;50.526;30.792;2022-08-19T20:51:47;6.85;;;4.45;;
73104;SDS011;61296;50.526;30.792;2022-08-19T21:07:06;8.35;;;5.40;;
73104;SDS011;61296;50.526;30.792;2022-08-19T21:22:26;8.10;;;5.75;;
73104;SDS011;61296;50.526;30.792;2022-08-19T21:37:46;8.55;;;5.50;;
73104;SDS011;61296;50.526;30.792;2022-08-19T21:53:05;7.05;;;5.40;;
73104;SDS011;61296;50.526;30.792;2022-08-19T22:08:25;7.45;;;5.10;;
73104;SDS011;61296;50.526;30.792;2022-08-19T22:23:45;8.18;;;5.32;;
73104;SDS011;61296;50.526;30.792;2022-08-19T22:39:05;11.68;;;6.63;;
73104;SDS011;61296;50.526;30.792;2022-08-19T22:54:25;9.48;;;5.40;;
73104;SDS011;61296;50.526;30.792;2022-08-19T23:09:44;10.05;;;5.40;;
73104;SDS011;61296;50.526;30.792;2022-08-19T23:25:05;6.60;;;5.03;;
73104;SDS011;61296;50.526;30.792;2022-08-19T23:40:26;7.03;;;5.05;;
73104;SDS011;61296;50.526;30.792;2022-08-19T23:55:46;6.72;;;5.40;;
